sensor_id;sensor_type;location;lat;lon;timestamp;P1;durP1;ratioP1;P2;durP2;ratioP2
49946;SDS011;35839;48.662;13.300;2023-01-08T16:44:41;64.40;;;29.17;;
49946;SDS011;35839;48.662;13.300;2023-01-08T16:47:07;65.10;;;29.17;;
49946;SDS011;35839;48.662;13.300;2023-01-08T16:49:32;62.10;;;27.70;;
49946;SDS011;35839;48.662;13.300;2023-01-08T16:51:57;65.83;;;28.67;;
49946;SDS011;35839;48.662;13.300;2023-01-08T16:54:23;61.00;;;27.17;;
49946;SDS011;35839;48.662;13.300;2023-01-08T16:56:51;67.03;;;28.07;;
49946;SDS011;35839;48.662;13.300;2023-01-08T16:59:16;58.20;;;25.63;;
49946;SDS011;35839;48.662;13.300;2023-01-08T17:01:42;60.57;;;25.93;;
49946;SDS011;35839;48.662;13.300;2023-01-08T17:04:07;59.43;;;26.07;;
49946;SDS011;35839;48.662;13.300;2023-01-08T17:06:32;51.73;;;23.97;;
49946;SDS011;35839;48.662;13.300;2023-01-08T17:09:00;50.10;;;24.20;;
49946;SDS011;35839;48.662;13.300;2023-01-08T17:11:26;49.23;;;25.10;;
49946;SDS011;35839;48.662;13.300;2023-01-08T17:13:51;51.70;;;24.23;;
49946;SDS011;35839;48.662;13.300;2023-01-08T17:16:17;51.23;;;24.97;;
49946;SDS011;35839;48.662;13.300;2023-01-08T17:18:43;52.57;;;23.07;;
49946;SDS011;35839;48.662;13.300;2023-01-08T17:21:09;55.83;;;25.67;;
49946;SDS011;35839;48.662;13.300;2023-01-08T17:23:35;49.63;;;24.43;;
49946;SDS011;35839;48.662;13.300;2023-01-08T17:26:04;51.40;;;24.80;;
49946;SDS011;35839;48.662;13.300;2023-01-08T17:28:31;49.57;;;22.90;;
49946;SDS011;35839;48.662;13.300;2023-01-08T17:31:02;55.17;;;25.17;;
49946;SDS011;35839;48.662;13.300;2023-01-08T17:33:29;54.27;;;24.20;;
49946;SDS011;35839;48.662;13.300;2023-01-08T17:35:55;54.33;;;26.87;;
49946;SDS011;35839;48.662;13.300;2023-01-08T17:38:22;57.70;;;25.47;;
49946;SDS011;35839;48.662;13.300;2023-01-08T17:40:48;50.90;;;25.10;;
49946;SDS011;35839;48.662;13.300;2023-01-08T17:43:13;52.80;;;25.40;;
49946;SDS011;35839;48.662;13.300;2023-01-08T17:45:38;58.37;;;25.73;;
49946;SDS011;35839;48.662;13.300;2023-01-08T17:48:04;56.27;;;26.83;;
49946;SDS011;35839;48.662;13.300;2023-01-08T17:50:29;53.43;;;24.53;;
49946;SDS011;35839;48.662;13.300;2023-01-08T17:52:58;56.63;;;25.17;;
49946;SDS011;35839;48.662;13.300;2023-01-08T17:55:23;58.77;;;27.50;;
49946;SDS011;35839;48.662;13.300;2023-01-08T17:57:49;53.27;;;24.70;;
49946;SDS011;35839;48.662;13.300;2023-01-08T18:00:15;53.97;;;23.57;;
49946;SDS011;35839;48.662;13.300;2023-01-08T18:02:42;55.87;;;25.63;;
49946;SDS011;35839;48.662;13.300;2023-01-08T18:05:08;51.37;;;24.67;;
49946;SDS011;35839;48.662;13.300;2023-01-08T18:07:34;51.80;;;25.37;;
49946;SDS011;35839;48.662;13.300;2023-01-08T18:09:59;55.30;;;25.20;;
49946;SDS011;35839;48.662;13.300;2023-01-08T18:12:25;45.20;;;22.37;;
49946;SDS011;35839;48.662;13.300;2023-01-08T18:14:50;47.40;;;22.87;;
49946;SDS011;35839;48.662;13.300;2023-01-08T18:17:16;52.73;;;24.77;;
49946;SDS011;35839;48.662;13.300;2023-01-08T18:19:42;45.03;;;22.93;;
49946;SDS011;35839;48.662;13.300;2023-01-08T18:22:07;49.00;;;23.43;;
49946;SDS011;35839;48.662;13.300;2023-01-08T18:24:32;41.23;;;21.57;;
49946;SDS011;35839;48.662;13.300;2023-01-08T18:26:58;47.80;;;23.63;;
49946;SDS011;35839;48.662;13.300;2023-01-08T18:29:24;45.53;;;22.23;;
49946;SDS011;35839;48.662;13.300;2023-01-08T18:31:49;48.83;;;23.40;;
49946;SDS011;35839;48.662;13.300;2023-01-08T18:34:15;42.37;;;22.13;;
49946;SDS011;35839;48.662;13.300;2023-01-08T18:36:40;36.63;;;21.33;;
49946;SDS011;35839;48.662;13.300;2023-01-08T18:39:06;41.17;;;22.10;;
49946;SDS011;35839;48.662;13.300;2023-01-08T18:41:31;45.90;;;22.97;;
49946;SDS011;35839;48.662;13.300;2023-01-08T18:44:15;41.87;;;21.30;;
49946;SDS011;35839;48.662;13.300;2023-01-08T18:46:40;39.50;;;21.10;;
49946;SDS011;35839;48.662;13.300;2023-01-08T18:49:06;42.30;;;21.87;;
49946;SDS011;35839;48.662;13.300;2023-01-08T18:51:31;43.00;;;21.50;;
49946;SDS011;35839;48.662;13.300;2023-01-08T18:53:57;41.93;;;21.80;;
49946;SDS011;35839;48.662;13.300;2023-01-08T18:56:24;38.63;;;21.03;;
49946;SDS011;35839;48.662;13.300;2023-01-08T18:58:53;37.13;;;20.97;;
49946;SDS011;35839;48.662;13.300;2023-01-08T19:01:18;43.33;;;22.33;;
49946;SDS011;35839;48.662;13.300;2023-01-08T19:03:44;36.17;;;20.53;;
49946;SDS011;35839;48.662;13.300;2023-01-08T19:06:13;38.77;;;19.70;;
49946;SDS011;35839;48.662;13.300;2023-01-08T19:08:42;36.60;;;19.73;;
49946;SDS011;35839;48.662;13.300;2023-01-08T19:11:09;40.20;;;19.43;;
49946;SDS011;35839;48.662;13.300;2023-01-08T19:13:35;36.27;;;21.23;;
49946;SDS011;35839;48.662;13.300;2023-01-08T19:16:04;39.80;;;20.90;;
49946;SDS011;35839;48.662;13.300;2023-01-08T19:18:31;36.93;;;20.77;;
49946;SDS011;35839;48.662;13.300;2023-01-08T19:20:57;64.20;;;22.00;;
49946;SDS011;35839;48.662;13.300;2023-01-08T19:23:23;42.83;;;20.63;;
49946;SDS011;35839;48.662;13.300;2023-01-08T19:25:48;36.10;;;18.20;;
49946;SDS011;35839;48.662;13.300;2023-01-08T19:28:13;44.57;;;20.17;;
49946;SDS011;35839;48.662;13.300;2023-01-08T19:30:38;37.90;;;20.63;;
49946;SDS011;35839;48.662;13.300;2023-01-08T19:33:04;38.87;;;20.30;;
49946;SDS011;35839;48.662;13.300;2023-01-08T19:35:30;41.30;;;20.40;;
49946;SDS011;35839;48.662;13.300;2023-01-08T19:37:55;37.17;;;18.40;;
49946;SDS011;35839;48.662;13.300;2023-01-08T19:40:20;39.53;;;19.07;;
49946;SDS011;35839;48.662;13.300;2023-01-08T19:42:46;33.13;;;18.47;;
49946;SDS011;35839;48.662;13.300;2023-01-08T19:45:30;37.00;;;18.60;;
49946;SDS011;35839;48.662;13.300;2023-01-08T19:47:59;33.08;;;17.88;;
49946;SDS011;35839;48.662;13.300;2023-01-08T19:50:24;32.83;;;17.40;;
49946;SDS011;35839;48.662;13.300;2023-01-08T19:52:50;29.90;;;17.70;;
49946;SDS011;35839;48.662;13.300;2023-01-08T19:55:16;27.37;;;15.33;;
49946;SDS011;35839;48.662;13.300;2023-01-08T19:57:45;34.50;;;17.52;;
49946;SDS011;35839;48.662;13.300;2023-01-08T20:00:11;26.83;;;16.00;;
49946;SDS011;35839;48.662;13.300;2023-01-08T20:02:37;25.10;;;15.53;;
49946;SDS011;35839;48.662;13.300;2023-01-08T20:05:02;29.73;;;15.80;;
49946;SDS011;35839;48.662;13.300;2023-01-08T20:07:27;29.27;;;15.43;;
49946;SDS011;35839;48.662;13.300;2023-01-08T20:09:53;26.40;;;15.70;;
49946;SDS011;35839;48.662;13.300;2023-01-08T20:12:18;28.30;;;15.47;;
49946;SDS011;35839;48.662;13.300;2023-01-08T20:14:43;26.27;;;14.80;;
49946;SDS011;35839;48.662;13.300;2023-01-08T20:17:09;29.07;;;15.87;;
49946;SDS011;35839;48.662;13.300;2023-01-08T20:19:35;25.20;;;13.83;;
49946;SDS011;35839;48.662;13.300;2023-01-08T20:22:01;22.97;;;14.67;;
49946;SDS011;35839;48.662;13.300;2023-01-08T20:24:26;27.10;;;14.90;;
49946;SDS011;35839;48.662;13.300;2023-01-08T20:26:53;27.20;;;15.20;;
49946;SDS011;35839;48.662;13.300;2023-01-08T20:29:19;32.73;;;18.70;;
49946;SDS011;35839;48.662;13.300;2023-01-08T20:31:45;37.70;;;17.93;;
49946;SDS011;35839;48.662;13.300;2023-01-08T20:34:13;27.20;;;16.07;;
49946;SDS011;35839;48.662;13.300;2023-01-08T20:36:40;22.93;;;13.67;;
49946;SDS011;35839;48.662;13.300;2023-01-08T20:39:07;27.83;;;15.23;;
49946;SDS011;35839;48.662;13.300;2023-01-08T20:41:33;19.63;;;12.83;;
49946;SDS011;35839;48.662;13.300;2023-01-08T20:44:00;23.20;;;13.10;;
49946;SDS011;35839;48.662;13.300;2023-01-08T20:46:27;20.33;;;13.07;;
49946;SDS011;35839;48.662;13.300;2023-01-08T20:48:54;22.90;;;13.70;;
49946;SDS011;35839;48.662;13.300;2023-01-08T20:51:20;22.53;;;12.97;;
49946;SDS011;35839;48.662;13.300;2023-01-08T20:53:45;21.63;;;12.60;;
49946;SDS011;35839;48.662;13.300;2023-01-08T20:56:11;23.47;;;12.97;;
49946;SDS011;35839;48.662;13.300;2023-01-08T20:58:39;19.37;;;11.83;;
49946;SDS011;35839;48.662;13.300;2023-01-08T21:01:07;20.87;;;13.10;;
49946;SDS011;35839;48.662;13.300;2023-01-08T21:03:39;19.73;;;11.60;;
49946;SDS011;35839;48.662;13.300;2023-01-08T21:06:05;19.63;;;12.23;;
49946;SDS011;35839;48.662;13.300;2023-01-08T21:08:32;18.43;;;11.87;;
49946;SDS011;35839;48.662;13.300;2023-01-08T21:10:57;21.53;;;11.60;;
49946;SDS011;35839;48.662;13.300;2023-01-08T21:13:28;18.43;;;10.27;;
49946;SDS011;35839;48.662;13.300;2023-01-08T21:15:58;16.70;;;11.70;;
49946;SDS011;35839;48.662;13.300;2023-01-08T21:18:25;20.70;;;12.83;;
49946;SDS011;35839;48.662;13.300;2023-01-08T21:20:58;17.40;;;11.47;;
49946;SDS011;35839;48.662;13.300;2023-01-08T21:23:24;16.00;;;10.70;;
49946;SDS011;35839;48.662;13.300;2023-01-08T21:25:56;14.80;;;10.10;;
49946;SDS011;35839;48.662;13.300;2023-01-08T21:28:26;15.30;;;10.50;;
49946;SDS011;35839;48.662;13.300;2023-01-08T21:30:52;17.37;;;9.70;;
49946;SDS011;35839;48.662;13.300;2023-01-08T21:33:17;14.77;;;9.17;;
49946;SDS011;35839;48.662;13.300;2023-01-08T21:35:42;15.97;;;9.70;;
49946;SDS011;35839;48.662;13.300;2023-01-08T21:38:08;16.00;;;10.33;;
49946;SDS011;35839;48.662;13.300;2023-01-08T21:40:33;14.23;;;10.00;;
49946;SDS011;35839;48.662;13.300;2023-01-08T21:42:58;17.53;;;9.73;;
49946;SDS011;35839;48.662;13.300;2023-01-08T21:45:42;16.23;;;9.67;;
49946;SDS011;35839;48.662;13.300;2023-01-08T21:48:08;16.20;;;9.27;;
49946;SDS011;35839;48.662;13.300;2023-01-08T21:50:33;12.67;;;8.63;;
49946;SDS011;35839;48.662;13.300;2023-01-08T21:52:58;13.10;;;8.23;;
49946;SDS011;35839;48.662;13.300;2023-01-08T21:55:42;17.13;;;9.17;;
49946;SDS011;35839;48.662;13.300;2023-01-08T21:58:08;10.90;;;7.63;;
49946;SDS011;35839;48.662;13.300;2023-01-08T22:00:33;13.53;;;8.37;;
49946;SDS011;35839;48.662;13.300;2023-01-08T22:02:59;15.93;;;9.07;;
49946;SDS011;35839;48.662;13.300;2023-01-08T22:05:25;11.40;;;8.30;;
49946;SDS011;35839;48.662;13.300;2023-01-08T22:07:50;12.13;;;8.43;;
49946;SDS011;35839;48.662;13.300;2023-01-08T22:10:16;13.33;;;8.17;;
49946;SDS011;35839;48.662;13.300;2023-01-08T22:12:41;12.00;;;8.03;;
49946;SDS011;35839;48.662;13.300;2023-01-08T22:15:06;11.20;;;7.77;;
49946;SDS011;35839;48.662;13.300;2023-01-08T22:17:33;12.53;;;8.60;;
49946;SDS011;35839;48.662;13.300;2023-01-08T22:19:59;12.67;;;8.70;;
49946;SDS011;35839;48.662;13.300;2023-01-08T22:22:25;11.13;;;8.00;;
49946;SDS011;35839;48.662;13.300;2023-01-08T22:24:51;12.47;;;7.33;;
49946;SDS011;35839;48.662;13.300;2023-01-08T22:27:17;11.90;;;7.63;;
49946;SDS011;35839;48.662;13.300;2023-01-08T22:29:42;12.23;;;7.50;;
49946;SDS011;35839;48.662;13.300;2023-01-08T22:32:08;8.97;;;7.03;;
49946;SDS011;35839;48.662;13.300;2023-01-08T22:34:33;8.67;;;6.60;;
49946;SDS011;35839;48.662;13.300;2023-01-08T22:36:59;7.70;;;6.03;;
49946;SDS011;35839;48.662;13.300;2023-01-08T22:39:25;8.40;;;6.30;;
49946;SDS011;35839;48.662;13.300;2023-01-08T22:41:50;8.50;;;6.00;;
49946;SDS011;35839;48.662;13.300;2023-01-08T22:44:15;7.33;;;5.43;;
49946;SDS011;35839;48.662;13.300;2023-01-08T22:46:41;8.13;;;6.10;;
49946;SDS011;35839;48.662;13.300;2023-01-08T22:49:07;13.90;;;8.97;;
49946;SDS011;35839;48.662;13.300;2023-01-08T22:51:34;13.37;;;8.20;;
49946;SDS011;35839;48.662;13.300;2023-01-08T22:54:00;15.83;;;9.30;;
49946;SDS011;35839;48.662;13.300;2023-01-08T22:56:25;14.37;;;8.73;;
